sensor_id;sensor_type;location;lat;lon;timestamp;P1;durP1;ratioP1;P2;durP2;ratioP2
84608;SDS011;74839;51.214;22.574;2024-01-16T00:01:52;2.40;;;2.20;;
84608;SDS011;74839;51.214;22.574;2024-01-16T00:04:18;2.03;;;1.87;;
84608;SDS011;74839;51.214;22.574;2024-01-16T00:06:44;3.70;;;2.10;;
84608;SDS011;74839;51.214;22.574;2024-01-16T00:09:10;2.60;;;2.40;;
84608;SDS011;74839;51.214;22.574;2024-01-16T00:11:39;3.80;;;2.27;;
84608;SDS011;74839;51.214;22.574;2024-01-16T00:14:06;3.20;;;2.20;;
84608;SDS011;74839;51.214;22.574;2024-01-16T00:16:32;4.27;;;2.17;;
84608;SDS011;74839;51.214;22.574;2024-01-16T00:18:58;3.57;;;2.20;;
84608;SDS011;74839;51.214;22.574;2024-01-16T00:21:24;5.80;;;2.73;;
84608;SDS011;74839;51.214;22.574;2024-01-16T00:23:50;2.93;;;2.13;;
84608;SDS011;74839;51.214;22.574;2024-01-16T00:26:20;4.43;;;2.13;;
84608;SDS011;74839;51.214;22.574;2024-01-16T00:28:46;4.77;;;2.40;;
84608;SDS011;74839;51.214;22.574;2024-01-16T00:31:12;3.93;;;2.07;;
84608;SDS011;74839;51.214;22.574;2024-01-16T00:33:38;7.23;;;1.97;;
84608;SDS011;74839;51.214;22.574;2024-01-16T00:36:05;3.97;;;2.17;;
84608;SDS011;74839;51.214;22.574;2024-01-16T00:38:33;4.67;;;2.60;;
84608;SDS011;74839;51.214;22.574;2024-01-16T00:41:00;3.70;;;2.27;;
84608;SDS011;74839;51.214;22.574;2024-01-16T00:43:26;2.97;;;2.40;;
84608;SDS011;74839;51.214;22.574;2024-01-16T00:45:52;4.50;;;2.10;;
84608;SDS011;74839;51.214;22.574;2024-01-16T00:48:18;2.20;;;1.97;;
84608;SDS011;74839;51.214;22.574;2024-01-16T00:50:45;4.00;;;2.17;;
84608;SDS011;74839;51.214;22.574;2024-01-16T00:53:14;4.47;;;2.50;;
84608;SDS011;74839;51.214;22.574;2024-01-16T00:55:40;2.40;;;2.07;;
84608;SDS011;74839;51.214;22.574;2024-01-16T00:58:06;4.57;;;2.10;;
84608;SDS011;74839;51.214;22.574;2024-01-16T01:00:32;2.57;;;2.03;;
84608;SDS011;74839;51.214;22.574;2024-01-16T01:03:00;4.03;;;2.20;;
84608;SDS011;74839;51.214;22.574;2024-01-16T01:05:26;2.63;;;2.13;;
84608;SDS011;74839;51.214;22.574;2024-01-16T01:07:56;5.10;;;2.10;;
84608;SDS011;74839;51.214;22.574;2024-01-16T01:10:22;5.00;;;2.53;;
84608;SDS011;74839;51.214;22.574;2024-01-16T01:12:49;2.37;;;1.80;;
84608;SDS011;74839;51.214;22.574;2024-01-16T01:15:16;2.87;;;1.80;;
84608;SDS011;74839;51.214;22.574;2024-01-16T01:17:42;5.07;;;1.80;;
84608;SDS011;74839;51.214;22.574;2024-01-16T01:20:08;5.03;;;2.40;;
84608;SDS011;74839;51.214;22.574;2024-01-16T01:22:37;2.30;;;1.93;;
84608;SDS011;74839;51.214;22.574;2024-01-16T01:25:03;4.03;;;2.73;;
84608;SDS011;74839;51.214;22.574;2024-01-16T01:27:29;4.87;;;2.40;;
84608;SDS011;74839;51.214;22.574;2024-01-16T01:29:55;4.20;;;1.93;;
84608;SDS011;74839;51.214;22.574;2024-01-16T01:32:21;5.33;;;2.53;;
84608;SDS011;74839;51.214;22.574;2024-01-16T01:34:47;3.90;;;2.60;;
84608;SDS011;74839;51.214;22.574;2024-01-16T01:37:13;3.63;;;2.70;;
84608;SDS011;74839;51.214;22.574;2024-01-16T01:39:39;5.50;;;2.53;;
84608;SDS011;74839;51.214;22.574;2024-01-16T01:42:05;4.77;;;2.87;;
84608;SDS011;74839;51.214;22.574;2024-01-16T01:44:31;6.10;;;2.90;;
84608;SDS011;74839;51.214;22.574;2024-01-16T01:46:57;6.80;;;2.53;;
84608;SDS011;74839;51.214;22.574;2024-01-16T01:49:24;3.53;;;2.50;;
84608;SDS011;74839;51.214;22.574;2024-01-16T01:51:50;4.80;;;2.50;;
84608;SDS011;74839;51.214;22.574;2024-01-16T01:54:17;6.57;;;3.00;;
84608;SDS011;74839;51.214;22.574;2024-01-16T01:56:44;2.23;;;2.03;;
84608;SDS011;74839;51.214;22.574;2024-01-16T01:59:11;5.20;;;2.60;;
84608;SDS011;74839;51.214;22.574;2024-01-16T02:01:39;5.10;;;2.70;;
84608;SDS011;74839;51.214;22.574;2024-01-16T02:04:06;6.67;;;2.93;;
84608;SDS011;74839;51.214;22.574;2024-01-16T02:06:32;4.90;;;2.83;;
84608;SDS011;74839;51.214;22.574;2024-01-16T02:08:58;3.80;;;2.87;;
84608;SDS011;74839;51.214;22.574;2024-01-16T02:11:25;4.60;;;2.33;;
84608;SDS011;74839;51.214;22.574;2024-01-16T02:13:51;2.87;;;2.40;;
84608;SDS011;74839;51.214;22.574;2024-01-16T02:16:21;4.97;;;2.90;;
84608;SDS011;74839;51.214;22.574;2024-01-16T02:18:47;7.47;;;3.10;;
84608;SDS011;74839;51.214;22.574;2024-01-16T02:21:18;4.60;;;2.63;;
84608;SDS011;74839;51.214;22.574;2024-01-16T02:23:44;3.07;;;2.47;;
84608;SDS011;74839;51.214;22.574;2024-01-16T02:26:10;6.50;;;2.77;;
84608;SDS011;74839;51.214;22.574;2024-01-16T02:28:36;5.23;;;2.53;;
84608;SDS011;74839;51.214;22.574;2024-01-16T02:31:02;3.37;;;2.57;;
84608;SDS011;74839;51.214;22.574;2024-01-16T02:33:28;5.83;;;2.87;;
84608;SDS011;74839;51.214;22.574;2024-01-16T02:35:54;3.77;;;2.37;;
84608;SDS011;74839;51.214;22.574;2024-01-16T02:38:20;5.10;;;2.60;;
84608;SDS011;74839;51.214;22.574;2024-01-16T02:40:46;5.33;;;2.90;;
84608;SDS011;74839;51.214;22.574;2024-01-16T02:43:12;3.70;;;2.43;;
84608;SDS011;74839;51.214;22.574;2024-01-16T02:45:38;4.00;;;2.43;;
84608;SDS011;74839;51.214;22.574;2024-01-16T02:48:04;3.13;;;2.37;;
84608;SDS011;74839;51.214;22.574;2024-01-16T02:50:30;5.67;;;2.37;;
84608;SDS011;74839;51.214;22.574;2024-01-16T02:52:56;4.37;;;2.87;;
84608;SDS011;74839;51.214;22.574;2024-01-16T02:55:22;3.97;;;2.77;;
84608;SDS011;74839;51.214;22.574;2024-01-16T02:57:48;2.90;;;2.30;;
84608;SDS011;74839;51.214;22.574;2024-01-16T03:00:15;5.73;;;2.90;;
84608;SDS011;74839;51.214;22.574;2024-01-16T03:02:42;5.63;;;2.50;;
84608;SDS011;74839;51.214;22.574;2024-01-16T03:05:09;2.60;;;2.10;;
84608;SDS011;74839;51.214;22.574;2024-01-16T03:07:35;5.90;;;2.63;;
84608;SDS011;74839;51.214;22.574;2024-01-16T03:10:02;6.73;;;2.80;;
84608;SDS011;74839;51.214;22.574;2024-01-16T03:12:28;6.10;;;2.70;;
84608;SDS011;74839;51.214;22.574;2024-01-16T03:14:54;4.33;;;2.70;;
84608;SDS011;74839;51.214;22.574;2024-01-16T03:17:20;6.23;;;2.77;;
84608;SDS011;74839;51.214;22.574;2024-01-16T03:19:46;2.83;;;2.43;;
84608;SDS011;74839;51.214;22.574;2024-01-16T03:22:12;5.57;;;2.87;;
84608;SDS011;74839;51.214;22.574;2024-01-16T03:24:38;5.47;;;2.30;;
84608;SDS011;74839;51.214;22.574;2024-01-16T03:27:05;4.10;;;2.50;;
84608;SDS011;74839;51.214;22.574;2024-01-16T03:29:31;2.73;;;2.40;;
84608;SDS011;74839;51.214;22.574;2024-01-16T03:31:58;7.50;;;2.70;;
84608;SDS011;74839;51.214;22.574;2024-01-16T03:34:25;4.07;;;2.60;;
84608;SDS011;74839;51.214;22.574;2024-01-16T03:36:52;4.40;;;2.57;;
84608;SDS011;74839;51.214;22.574;2024-01-16T03:39:18;3.53;;;2.50;;
84608;SDS011;74839;51.214;22.574;2024-01-16T03:41:44;4.70;;;3.13;;
84608;SDS011;74839;51.214;22.574;2024-01-16T03:44:10;3.60;;;2.50;;
84608;SDS011;74839;51.214;22.574;2024-01-16T03:46:36;3.43;;;2.63;;
84608;SDS011;74839;51.214;22.574;2024-01-16T03:49:02;5.33;;;2.67;;
84608;SDS011;74839;51.214;22.574;2024-01-16T03:51:28;3.83;;;2.03;;
84608;SDS011;74839;51.214;22.574;2024-01-16T03:53:54;3.70;;;2.50;;
84608;SDS011;74839;51.214;22.574;2024-01-16T03:56:20;5.17;;;2.27;;
84608;SDS011;74839;51.214;22.574;2024-01-16T03:58:46;3.80;;;2.70;;
84608;SDS011;74839;51.214;22.574;2024-01-16T04:01:12;4.23;;;2.27;;
84608;SDS011;74839;51.214;22.574;2024-01-16T04:03:38;3.63;;;2.50;;
84608;SDS011;74839;51.214;22.574;2024-01-16T04:06:17;5.07;;;2.70;;
84608;SDS011;74839;51.214;22.574;2024-01-16T04:08:43;3.37;;;2.40;;
84608;SDS011;74839;51.214;22.574;2024-01-16T04:11:13;3.60;;;2.60;;
84608;SDS011;74839;51.214;22.574;2024-01-16T04:13:39;7.10;;;2.70;;
84608;SDS011;74839;51.214;22.574;2024-01-16T04:16:06;5.10;;;2.60;;
84608;SDS011;74839;51.214;22.574;2024-01-16T04:18:35;5.50;;;2.57;;
84608;SDS011;74839;51.214;22.574;2024-01-16T04:21:02;4.70;;;2.77;;
84608;SDS011;74839;51.214;22.574;2024-01-16T04:23:28;3.80;;;2.33;;
84608;SDS011;74839;51.214;22.574;2024-01-16T04:25:54;3.90;;;2.53;;
84608;SDS011;74839;51.214;22.574;2024-01-16T04:28:20;3.97;;;2.77;;
84608;SDS011;74839;51.214;22.574;2024-01-16T04:30:46;3.30;;;2.00;;
84608;SDS011;74839;51.214;22.574;2024-01-16T04:33:12;4.67;;;2.20;;
84608;SDS011;74839;51.214;22.574;2024-01-16T04:35:38;2.33;;;1.93;;
84608;SDS011;74839;51.214;22.574;2024-01-16T04:38:04;3.33;;;2.10;;
84608;SDS011;74839;51.214;22.574;2024-01-16T04:40:30;3.30;;;1.87;;
84608;SDS011;74839;51.214;22.574;2024-01-16T04:42:56;2.17;;;1.77;;
84608;SDS011;74839;51.214;22.574;2024-01-16T04:45:22;1.73;;;1.63;;
84608;SDS011;74839;51.214;22.574;2024-01-16T04:47:48;3.03;;;1.80;;
84608;SDS011;74839;51.214;22.574;2024-01-16T04:50:15;1.90;;;1.60;;
84608;SDS011;74839;51.214;22.574;2024-01-16T04:52:41;2.23;;;2.03;;
84608;SDS011;74839;51.214;22.574;2024-01-16T04:55:07;2.80;;;1.80;;
84608;SDS011;74839;51.214;22.574;2024-01-16T04:57:33;2.00;;;1.87;;
84608;SDS011;74839;51.214;22.574;2024-01-16T04:59:59;1.83;;;1.70;;
84608;SDS011;74839;51.214;22.574;2024-01-16T05:02:25;2.00;;;1.80;;
84608;SDS011;74839;51.214;22.574;2024-01-16T05:04:51;1.63;;;1.53;;
84608;SDS011;74839;51.214;22.574;2024-01-16T05:07:17;2.30;;;1.90;;
84608;SDS011;74839;51.214;22.574;2024-01-16T05:09:45;3.17;;;1.93;;
84608;SDS011;74839;51.214;22.574;2024-01-16T05:12:11;2.40;;;2.00;;
84608;SDS011;74839;51.214;22.574;2024-01-16T05:14:38;3.17;;;2.07;;
84608;SDS011;74839;51.214;22.574;2024-01-16T05:17:04;3.87;;;2.00;;
84608;SDS011;74839;51.214;22.574;2024-01-16T05:19:30;2.13;;;1.80;;
84608;SDS011;74839;51.214;22.574;2024-01-16T05:21:56;2.57;;;2.37;;
84608;SDS011;74839;51.214;22.574;2024-01-16T05:24:22;3.67;;;1.90;;
84608;SDS011;74839;51.214;22.574;2024-01-16T05:26:48;2.43;;;2.23;;
84608;SDS011;74839;51.214;22.574;2024-01-16T05:29:14;3.30;;;2.37;;
84608;SDS011;74839;51.214;22.574;2024-01-16T05:31:40;3.40;;;1.97;;
84608;SDS011;74839;51.214;22.574;2024-01-16T05:34:07;2.47;;;2.17;;
84608;SDS011;74839;51.214;22.574;2024-01-16T05:36:33;5.00;;;2.73;;
84608;SDS011;74839;51.214;22.574;2024-01-16T05:38:59;4.07;;;2.13;;
84608;SDS011;74839;51.214;22.574;2024-01-16T05:41:25;6.17;;;2.27;;
84608;SDS011;74839;51.214;22.574;2024-01-16T05:43:51;3.03;;;2.17;;
84608;SDS011;74839;51.214;22.574;2024-01-16T05:46:17;4.13;;;2.40;;
84608;SDS011;74839;51.214;22.574;2024-01-16T05:48:43;2.70;;;2.10;;
84608;SDS011;74839;51.214;22.574;2024-01-16T05:51:09;3.60;;;2.50;;
84608;SDS011;74839;51.214;22.574;2024-01-16T05:53:35;2.40;;;2.20;;
84608;SDS011;74839;51.214;22.574;2024-01-16T05:56:02;2.43;;;2.23;;
84608;SDS011;74839;51.214;22.574;2024-01-16T05:58:27;2.30;;;2.10;;
84608;SDS011;74839;51.214;22.574;2024-01-16T06:00:53;4.73;;;2.77;;
84608;SDS011;74839;51.214;22.574;2024-01-16T06:03:20;2.87;;;2.53;;
84608;SDS011;74839;51.214;22.574;2024-01-16T06:05:46;12.30;;;6.20;;
84608;SDS011;74839;51.214;22.574;2024-01-16T06:08:12;5.40;;;3.47;;
84608;SDS011;74839;51.214;22.574;2024-01-16T06:10:38;5.00;;;3.00;;
84608;SDS011;74839;51.214;22.574;2024-01-16T06:13:04;4.00;;;3.30;;
84608;SDS011;74839;51.214;22.574;2024-01-16T06:15:30;3.70;;;3.30;;
84608;SDS011;74839;51.214;22.574;2024-01-16T06:17:56;7.90;;;4.20;;
84608;SDS011;74839;51.214;22.574;2024-01-16T06:20:22;6.47;;;4.80;;
84608;SDS011;74839;51.214;22.574;2024-01-16T06:22:50;10.17;;;6.00;;
84608;SDS011;74839;51.214;22.574;2024-01-16T06:25:16;11.50;;;6.20;;
84608;SDS011;74839;51.214;22.574;2024-01-16T06:27:42;11.03;;;6.97;;
84608;SDS011;74839;51.214;22.574;2024-01-16T06:30:08;8.97;;;5.73;;
84608;SDS011;74839;51.214;22.574;2024-01-16T06:32:34;9.67;;;5.80;;
84608;SDS011;74839;51.214;22.574;2024-01-16T06:35:00;16.33;;;7.43;;
84608;SDS011;74839;51.214;22.574;2024-01-16T06:37:27;11.00;;;5.33;;
84608;SDS011;74839;51.214;22.574;2024-01-16T06:39:53;17.90;;;8.17;;
84608;SDS011;74839;51.214;22.574;2024-01-16T06:42:19;8.70;;;5.03;;
84608;SDS011;74839;51.214;22.574;2024-01-16T06:44:45;10.47;;;5.27;;
84608;SDS011;74839;51.214;22.574;2024-01-16T06:47:11;10.17;;;5.90;;
84608;SDS011;74839;51.214;22.574;2024-01-16T06:49:36;7.27;;;4.20;;
84608;SDS011;74839;51.214;22.574;2024-01-16T06:52:03;6.83;;;4.33;;
84608;SDS011;74839;51.214;22.574;2024-01-16T06:54:29;8.63;;;3.93;;
84608;SDS011;74839;51.214;22.574;2024-01-16T06:56:55;6.70;;;3.87;;
84608;SDS011;74839;51.214;22.574;2024-01-16T06:59:21;6.07;;;3.63;;
84608;SDS011;74839;51.214;22.574;2024-01-16T07:01:47;5.27;;;3.63;;
84608;SDS011;74839;51.214;22.574;2024-01-16T07:04:13;6.20;;;3.93;;
84608;SDS011;74839;51.214;22.574;2024-01-16T07:06:40;10.17;;;4.40;;
84608;SDS011;74839;51.214;22.574;2024-01-16T07:09:06;6.20;;;3.87;;
84608;SDS011;74839;51.214;22.574;2024-01-16T07:11:35;8.83;;;4.70;;
84608;SDS011;74839;51.214;22.574;2024-01-16T07:14:01;10.53;;;4.90;;
84608;SDS011;74839;51.214;22.574;2024-01-16T07:16:28;9.97;;;4.33;;
84608;SDS011;74839;51.214;22.574;2024-01-16T07:18:54;11.97;;;4.50;;
84608;SDS011;74839;51.214;22.574;2024-01-16T07:21:20;6.53;;;4.03;;
84608;SDS011;74839;51.214;22.574;2024-01-16T07:23:46;5.43;;;3.70;;
84608;SDS011;74839;51.214;22.574;2024-01-16T07:26:13;7.77;;;3.90;;
84608;SDS011;74839;51.214;22.574;2024-01-16T07:28:39;5.77;;;3.60;;
84608;SDS011;74839;51.214;22.574;2024-01-16T07:31:05;6.80;;;3.83;;
84608;SDS011;74839;51.214;22.574;2024-01-16T07:33:32;8.37;;;4.47;;
84608;SDS011;74839;51.214;22.574;2024-01-16T07:35:58;8.27;;;3.50;;
84608;SDS011;74839;51.214;22.574;2024-01-16T07:38:24;6.20;;;3.63;;
84608;SDS011;74839;51.214;22.574;2024-01-16T07:40:50;6.33;;;3.43;;
84608;SDS011;74839;51.214;22.574;2024-01-16T07:43:16;6.30;;;4.33;;
84608;SDS011;74839;51.214;22.574;2024-01-16T07:45:42;6.57;;;3.73;;
84608;SDS011;74839;51.214;22.574;2024-01-16T07:48:08;5.50;;;3.83;;
84608;SDS011;74839;51.214;22.574;2024-01-16T07:50:34;6.13;;;3.43;;
84608;SDS011;74839;51.214;22.574;2024-01-16T07:53:00;7.83;;;4.17;;
84608;SDS011;74839;51.214;22.574;2024-01-16T07:55:26;6.97;;;4.20;;
84608;SDS011;74839;51.214;22.574;2024-01-16T07:57:53;6.73;;;3.90;;
84608;SDS011;74839;51.214;22.574;2024-01-16T08:00:20;5.43;;;3.70;;
84608;SDS011;74839;51.214;22.574;2024-01-16T08:02:47;9.03;;;3.83;;
84608;SDS011;74839;51.214;22.574;2024-01-16T08:05:13;9.43;;;3.60;;
84608;SDS011;74839;51.214;22.574;2024-01-16T08:07:41;8.03;;;4.40;;
84608;SDS011;74839;51.214;22.574;2024-01-16T08:10:08;8.27;;;4.07;;
84608;SDS011;74839;51.214;22.574;2024-01-16T08:12:34;6.93;;;3.63;;
84608;SDS011;74839;51.214;22.574;2024-01-16T08:15:02;11.60;;;4.57;;
84608;SDS011;74839;51.214;22.574;2024-01-16T08:17:28;7.27;;;3.87;;
84608;SDS011;74839;51.214;22.574;2024-01-16T08:19:54;11.73;;;4.33;;
84608;SDS011;74839;51.214;22.574;2024-01-16T08:22:20;7.57;;;4.47;;
84608;SDS011;74839;51.214;22.574;2024-01-16T08:24:46;7.03;;;3.97;;
84608;SDS011;74839;51.214;22.574;2024-01-16T08:27:12;6.93;;;3.93;;
84608;SDS011;74839;51.214;22.574;2024-01-16T08:29:39;9.80;;;4.87;;
84608;SDS011;74839;51.214;22.574;2024-01-16T08:32:05;6.10;;;3.87;;
84608;SDS011;74839;51.214;22.574;2024-01-16T08:34:31;7.37;;;4.07;;
84608;SDS011;74839;51.214;22.574;2024-01-16T08:36:56;11.47;;;4.33;;
84608;SDS011;74839;51.214;22.574;2024-01-16T08:39:23;10.17;;;4.40;;
84608;SDS011;74839;51.214;22.574;2024-01-16T08:41:49;9.00;;;4.20;;
84608;SDS011;74839;51.214;22.574;2024-01-16T08:44:15;6.10;;;3.93;;
84608;SDS011;74839;51.214;22.574;2024-01-16T08:46:41;8.13;;;4.70;;
84608;SDS011;74839;51.214;22.574;2024-01-16T08:49:07;9.47;;;4.47;;
84608;SDS011;74839;51.214;22.574;2024-01-16T08:51:34;7.23;;;3.67;;
84608;SDS011;74839;51.214;22.574;2024-01-16T08:54:00;6.90;;;3.87;;
84608;SDS011;74839;51.214;22.574;2024-01-16T08:56:26;6.70;;;3.90;;
84608;SDS011;74839;51.214;22.574;2024-01-16T08:58:52;7.27;;;4.40;;
84608;SDS011;74839;51.214;22.574;2024-01-16T09:01:18;8.00;;;4.03;;
84608;SDS011;74839;51.214;22.574;2024-01-16T09:03:45;6.60;;;3.77;;
84608;SDS011;74839;51.214;22.574;2024-01-16T09:06:12;5.47;;;3.57;;
84608;SDS011;74839;51.214;22.574;2024-01-16T09:08:38;7.70;;;3.93;;
84608;SDS011;74839;51.214;22.574;2024-01-16T09:11:04;5.43;;;3.80;;
84608;SDS011;74839;51.214;22.574;2024-01-16T09:13:30;9.07;;;3.70;;
84608;SDS011;74839;51.214;22.574;2024-01-16T09:15:56;5.97;;;3.87;;
84608;SDS011;74839;51.214;22.574;2024-01-16T09:18:22;12.77;;;4.67;;
84608;SDS011;74839;51.214;22.574;2024-01-16T09:20:48;6.33;;;4.37;;
84608;SDS011;74839;51.214;22.574;2024-01-16T09:23:14;10.43;;;4.43;;
84608;SDS011;74839;51.214;22.574;2024-01-16T09:25:40;4.20;;;3.50;;
84608;SDS011;74839;51.214;22.574;2024-01-16T09:28:06;6.37;;;3.60;;
84608;SDS011;74839;51.214;22.574;2024-01-16T09:30:32;5.33;;;3.53;;
84608;SDS011;74839;51.214;22.574;2024-01-16T09:32:59;5.50;;;3.27;;
84608;SDS011;74839;51.214;22.574;2024-01-16T09:35:25;5.13;;;3.90;;
84608;SDS011;74839;51.214;22.574;2024-01-16T09:37:51;5.87;;;4.00;;
84608;SDS011;74839;51.214;22.574;2024-01-16T09:40:17;6.30;;;3.67;;
84608;SDS011;74839;51.214;22.574;2024-01-16T09:42:43;8.13;;;4.00;;
84608;SDS011;74839;51.214;22.574;2024-01-16T09:45:09;7.63;;;4.80;;
84608;SDS011;74839;51.214;22.574;2024-01-16T09:47:36;7.30;;;4.00;;
84608;SDS011;74839;51.214;22.574;2024-01-16T09:50:04;5.00;;;3.23;;
84608;SDS011;74839;51.214;22.574;2024-01-16T09:52:30;6.57;;;3.87;;
84608;SDS011;74839;51.214;22.574;2024-01-16T09:54:56;8.00;;;3.93;;
84608;SDS011;74839;51.214;22.574;2024-01-16T09:57:25;8.90;;;4.20;;
84608;SDS011;74839;51.214;22.574;2024-01-16T09:59:51;7.73;;;4.27;;
84608;SDS011;74839;51.214;22.574;2024-01-16T10:02:18;9.40;;;4.23;;
84608;SDS011;74839;51.214;22.574;2024-01-16T10:04:46;6.70;;;4.13;;
84608;SDS011;74839;51.214;22.574;2024-01-16T10:07:12;6.43;;;3.90;;
84608;SDS011;74839;51.214;22.574;2024-01-16T10:09:38;6.10;;;3.97;;
84608;SDS011;74839;51.214;22.574;2024-01-16T10:12:05;7.60;;;4.40;;
84608;SDS011;74839;51.214;22.574;2024-01-16T10:14:32;5.20;;;3.33;;
84608;SDS011;74839;51.214;22.574;2024-01-16T10:16:59;7.40;;;3.70;;
84608;SDS011;74839;51.214;22.574;2024-01-16T10:19:46;11.83;;;4.17;;
84608;SDS011;74839;51.214;22.574;2024-01-16T10:22:13;7.00;;;4.27;;
84608;SDS011;74839;51.214;22.574;2024-01-16T10:24:39;6.50;;;3.93;;
84608;SDS011;74839;51.214;22.574;2024-01-16T10:27:06;8.47;;;4.63;;
84608;SDS011;74839;51.214;22.574;2024-01-16T10:29:32;7.43;;;4.27;;
84608;SDS011;74839;51.214;22.574;2024-01-16T10:31:58;5.70;;;3.87;;
84608;SDS011;74839;51.214;22.574;2024-01-16T10:34:24;9.80;;;4.13;;
84608;SDS011;74839;51.214;22.574;2024-01-16T10:36:51;7.47;;;5.00;;
84608;SDS011;74839;51.214;22.574;2024-01-16T10:39:18;10.00;;;4.50;;
84608;SDS011;74839;51.214;22.574;2024-01-16T10:41:53;7.50;;;4.77;;
84608;SDS011;74839;51.214;22.574;2024-01-16T10:44:20;7.87;;;5.17;;
84608;SDS011;74839;51.214;22.574;2024-01-16T10:46:46;7.90;;;4.53;;
84608;SDS011;74839;51.214;22.574;2024-01-16T10:49:12;7.97;;;4.60;;
84608;SDS011;74839;51.214;22.574;2024-01-16T10:51:38;6.63;;;4.30;;
84608;SDS011;74839;51.214;22.574;2024-01-16T10:54:08;5.90;;;4.20;;
84608;SDS011;74839;51.214;22.574;2024-01-16T10:56:39;6.90;;;4.47;;
84608;SDS011;74839;51.214;22.574;2024-01-16T10:59:16;9.67;;;4.27;;
84608;SDS011;74839;51.214;22.574;2024-01-16T11:01:45;7.33;;;4.23;;
84608;SDS011;74839;51.214;22.574;2024-01-16T11:04:12;7.40;;;4.20;;
84608;SDS011;74839;51.214;22.574;2024-01-16T11:06:38;6.20;;;3.90;;
84608;SDS011;74839;51.214;22.574;2024-01-16T11:09:05;7.80;;;3.83;;
84608;SDS011;74839;51.214;22.574;2024-01-16T11:11:32;10.00;;;5.30;;
84608;SDS011;74839;51.214;22.574;2024-01-16T11:13:59;10.57;;;4.87;;
84608;SDS011;74839;51.214;22.574;2024-01-16T11:16:25;7.77;;;4.60;;
84608;SDS011;74839;51.214;22.574;2024-01-16T11:18:52;10.63;;;5.13;;
84608;SDS011;74839;51.214;22.574;2024-01-16T11:21:18;7.40;;;4.90;;
84608;SDS011;74839;51.214;22.574;2024-01-16T11:23:44;11.87;;;5.50;;
84608;SDS011;74839;51.214;22.574;2024-01-16T11:28:52;8.53;;;4.60;;
84608;SDS011;74839;51.214;22.574;2024-01-16T11:31:27;6.10;;;3.90;;
84608;SDS011;74839;51.214;22.574;2024-01-16T11:33:54;9.53;;;4.53;;
84608;SDS011;74839;51.214;22.574;2024-01-16T11:36:42;5.03;;;3.13;;
84608;SDS011;74839;51.214;22.574;2024-01-16T11:39:16;7.10;;;3.57;;
84608;SDS011;74839;51.214;22.574;2024-01-16T11:41:49;5.80;;;3.43;;
84608;SDS011;74839;51.214;22.574;2024-01-16T11:47:03;7.70;;;4.03;;
84608;SDS011;74839;51.214;22.574;2024-01-16T11:49:30;4.93;;;3.50;;
84608;SDS011;74839;51.214;22.574;2024-01-16T11:51:59;9.27;;;4.37;;
84608;SDS011;74839;51.214;22.574;2024-01-16T11:54:25;5.67;;;3.60;;
84608;SDS011;74839;51.214;22.574;2024-01-16T11:57:04;5.33;;;3.53;;
84608;SDS011;74839;51.214;22.574;2024-01-16T12:02:23;5.50;;;3.40;;
84608;SDS011;74839;51.214;22.574;2024-01-16T12:04:53;8.77;;;3.70;;
84608;SDS011;74839;51.214;22.574;2024-01-16T12:07:23;7.87;;;4.77;;
84608;SDS011;74839;51.214;22.574;2024-01-16T12:09:49;8.93;;;5.67;;
84608;SDS011;74839;51.214;22.574;2024-01-16T12:12:15;12.30;;;6.63;;
84608;SDS011;74839;51.214;22.574;2024-01-16T12:14:50;8.83;;;5.50;;
84608;SDS011;74839;51.214;22.574;2024-01-16T12:17:18;13.70;;;6.23;;
84608;SDS011;74839;51.214;22.574;2024-01-16T12:19:45;10.37;;;6.20;;
84608;SDS011;74839;51.214;22.574;2024-01-16T12:22:14;10.00;;;5.57;;
84608;SDS011;74839;51.214;22.574;2024-01-16T12:24:43;10.13;;;4.40;;
84608;SDS011;74839;51.214;22.574;2024-01-16T12:27:10;9.50;;;4.70;;
84608;SDS011;74839;51.214;22.574;2024-01-16T12:29:36;10.03;;;5.07;;
84608;SDS011;74839;51.214;22.574;2024-01-16T12:32:11;8.67;;;5.03;;
84608;SDS011;74839;51.214;22.574;2024-01-16T12:34:43;8.43;;;5.33;;
84608;SDS011;74839;51.214;22.574;2024-01-16T12:37:16;7.30;;;5.50;;
84608;SDS011;74839;51.214;22.574;2024-01-16T12:39:42;10.40;;;6.00;;
84608;SDS011;74839;51.214;22.574;2024-01-16T12:42:09;9.60;;;5.20;;
84608;SDS011;74839;51.214;22.574;2024-01-16T12:44:35;10.47;;;5.50;;
84608;SDS011;74839;51.214;22.574;2024-01-16T12:47:01;10.73;;;5.93;;
84608;SDS011;74839;51.214;22.574;2024-01-16T12:49:27;9.20;;;5.73;;
84608;SDS011;74839;51.214;22.574;2024-01-16T12:54:38;7.83;;;4.90;;
84608;SDS011;74839;51.214;22.574;2024-01-16T12:57:04;9.70;;;5.27;;
84608;SDS011;74839;51.214;22.574;2024-01-16T12:59:31;10.53;;;6.30;;
84608;SDS011;74839;51.214;22.574;2024-01-16T13:01:57;12.73;;;6.27;;
84608;SDS011;74839;51.214;22.574;2024-01-16T13:04:25;11.37;;;6.30;;
84608;SDS011;74839;51.214;22.574;2024-01-16T13:07:00;9.40;;;6.00;;
84608;SDS011;74839;51.214;22.574;2024-01-16T13:09:26;10.60;;;5.93;;
84608;SDS011;74839;51.214;22.574;2024-01-16T13:11:52;11.00;;;5.90;;
84608;SDS011;74839;51.214;22.574;2024-01-16T13:14:20;10.47;;;5.63;;
84608;SDS011;74839;51.214;22.574;2024-01-16T13:16:46;8.27;;;4.77;;
84608;SDS011;74839;51.214;22.574;2024-01-16T13:19:15;10.60;;;4.73;;
84608;SDS011;74839;51.214;22.574;2024-01-16T13:21:41;10.27;;;6.03;;
84608;SDS011;74839;51.214;22.574;2024-01-16T13:24:07;7.60;;;5.03;;
84608;SDS011;74839;51.214;22.574;2024-01-16T13:26:34;9.63;;;6.23;;
84608;SDS011;74839;51.214;22.574;2024-01-16T13:29:00;10.30;;;5.70;;
84608;SDS011;74839;51.214;22.574;2024-01-16T13:31:26;10.20;;;5.80;;
84608;SDS011;74839;51.214;22.574;2024-01-16T13:33:52;10.67;;;6.07;;
84608;SDS011;74839;51.214;22.574;2024-01-16T13:36:18;12.83;;;6.20;;
84608;SDS011;74839;51.214;22.574;2024-01-16T13:38:45;7.57;;;5.43;;
84608;SDS011;74839;51.214;22.574;2024-01-16T13:41:11;11.60;;;5.87;;
84608;SDS011;74839;51.214;22.574;2024-01-16T13:43:37;10.50;;;6.40;;
84608;SDS011;74839;51.214;22.574;2024-01-16T13:46:03;9.17;;;5.00;;
84608;SDS011;74839;51.214;22.574;2024-01-16T13:48:29;10.63;;;6.03;;
84608;SDS011;74839;51.214;22.574;2024-01-16T13:50:55;11.47;;;5.47;;
84608;SDS011;74839;51.214;22.574;2024-01-16T13:53:21;17.93;;;7.70;;
84608;SDS011;74839;51.214;22.574;2024-01-16T13:55:48;12.20;;;6.57;;
84608;SDS011;74839;51.214;22.574;2024-01-16T13:58:14;10.63;;;5.77;;
84608;SDS011;74839;51.214;22.574;2024-01-16T14:00:40;8.90;;;5.00;;
84608;SDS011;74839;51.214;22.574;2024-01-16T14:03:06;8.80;;;5.30;;
84608;SDS011;74839;51.214;22.574;2024-01-16T14:05:32;10.23;;;5.43;;
84608;SDS011;74839;51.214;22.574;2024-01-16T14:07:58;8.37;;;5.60;;
84608;SDS011;74839;51.214;22.574;2024-01-16T14:10:24;8.90;;;5.07;;
84608;SDS011;74839;51.214;22.574;2024-01-16T14:12:50;9.37;;;5.20;;
84608;SDS011;74839;51.214;22.574;2024-01-16T14:15:18;11.63;;;6.17;;
84608;SDS011;74839;51.214;22.574;2024-01-16T14:17:46;13.37;;;5.77;;
84608;SDS011;74839;51.214;22.574;2024-01-16T14:20:13;13.60;;;6.30;;
84608;SDS011;74839;51.214;22.574;2024-01-16T14:22:39;11.90;;;5.53;;
84608;SDS011;74839;51.214;22.574;2024-01-16T14:25:09;13.00;;;6.10;;
84608;SDS011;74839;51.214;22.574;2024-01-16T14:27:44;10.70;;;5.47;;
84608;SDS011;74839;51.214;22.574;2024-01-16T14:30:10;15.57;;;6.43;;
84608;SDS011;74839;51.214;22.574;2024-01-16T14:32:38;12.97;;;8.00;;
84608;SDS011;74839;51.214;22.574;2024-01-16T14:35:05;11.30;;;6.03;;
84608;SDS011;74839;51.214;22.574;2024-01-16T14:37:32;15.30;;;6.30;;
84608;SDS011;74839;51.214;22.574;2024-01-16T14:39:58;10.73;;;6.60;;
84608;SDS011;74839;51.214;22.574;2024-01-16T14:42:26;15.40;;;7.10;;